createdAt,value
2022-12-13T00:01:55.636Z,4.83
2022-12-13T00:04:24.853Z,4.93
2022-12-13T00:06:53.984Z,4.83
2022-12-13T00:09:21.544Z,5.10
2022-12-13T00:11:49.225Z,4.93
2022-12-13T00:14:16.472Z,4.43
2022-12-13T00:17:45.800Z,4.50
2022-12-13T00:20:12.840Z,4.90
2022-12-13T00:22:39.776Z,4.63
2022-12-13T00:25:06.869Z,5.20
2022-12-13T00:27:33.749Z,5.00
2022-12-13T00:30:00.622Z,4.33
2022-12-13T00:32:27.941Z,4.33
2022-12-13T00:34:54.812Z,4.80
2022-12-13T00:37:21.687Z,4.40
2022-12-13T00:39:48.567Z,4.13
2022-12-13T00:42:15.468Z,4.50
2022-12-13T00:44:42.334Z,3.90
2022-12-13T00:47:10.003Z,4.40
2022-12-13T00:49:36.945Z,4.47
2022-12-13T00:52:03.892Z,4.10
2022-12-13T00:54:30.804Z,4.23
2022-12-13T00:56:57.664Z,4.10
2022-12-13T00:59:24.909Z,4.07
2022-12-13T01:01:53.458Z,4.40
2022-12-13T01:04:21.280Z,3.73
2022-12-13T01:06:49.946Z,3.83
2022-12-13T01:09:27.211Z,4.20
2022-12-13T01:11:59.170Z,3.90
2022-12-13T01:14:26.798Z,4.30
2022-12-13T01:16:55.724Z,4.27
2022-12-13T01:19:28.084Z,4.47
2022-12-13T01:22:01.806Z,3.80
2022-12-13T01:24:30.375Z,4.20
2022-12-13T01:26:58.083Z,4.63
2022-12-13T01:29:26.707Z,3.43
2022-12-13T01:31:54.162Z,4.03
2022-12-13T01:34:26.506Z,4.60
2022-12-13T01:36:57.906Z,4.13
2022-12-13T01:39:27.161Z,4.27
2022-12-13T01:41:59.398Z,3.67
2022-12-13T01:45:03.825Z,4.43
2022-12-13T01:47:41.377Z,3.53
2022-12-13T01:50:18.426Z,3.87
2022-12-13T01:52:46.237Z,4.47
2022-12-13T01:55:14.788Z,4.10
2022-12-13T01:57:45.910Z,4.53
2022-12-13T02:00:14.986Z,4.30
2022-12-13T02:02:42.020Z,4.13
2022-12-13T02:05:23.054Z,5.27
2022-12-13T02:07:51.210Z,3.90
2022-12-13T02:10:18.204Z,3.80
2022-12-13T02:12:45.350Z,3.97
2022-12-13T02:15:17.042Z,4.37
2022-12-13T02:18:09.744Z,4.20
2022-12-13T02:21:06.851Z,3.73
2022-12-13T02:24:09.460Z,4.43
2022-12-13T02:27:01.908Z,4.00
2022-12-13T02:29:58.058Z,4.17
2022-12-13T02:32:57.721Z,4.43
2022-12-13T02:35:44.610Z,4.50
2022-12-13T02:38:40.294Z,4.30
2022-12-13T02:41:18.254Z,5.57
2022-12-13T02:43:49.406Z,5.53
2022-12-13T02:46:21.716Z,4.97
2022-12-13T02:48:51.351Z,5.30
2022-12-13T02:51:19.649Z,5.93
2022-12-13T02:53:46.891Z,5.87
2022-12-13T02:56:14.168Z,5.63
2022-12-13T02:58:49.969Z,6.53
2022-12-13T03:01:41.570Z,6.30
2022-12-13T03:05:06.941Z,6.80
2022-12-13T03:08:08.942Z,6.30
2022-12-13T03:10:57.011Z,6.23
2022-12-13T03:13:48.027Z,7.07
2022-12-13T03:16:26.062Z,7.50
2022-12-13T03:18:58.295Z,6.30
2022-12-13T03:21:25.854Z,4.90
2022-12-13T03:23:52.785Z,5.80
2022-12-13T03:26:26.659Z,6.37
2022-12-13T03:28:54.428Z,5.90
2022-12-13T03:31:21.517Z,5.87
2022-12-13T03:33:48.539Z,6.60
2022-12-13T03:36:16.702Z,6.10
2022-12-13T03:38:44.879Z,6.57
2022-12-13T03:41:15.847Z,6.20
2022-12-13T03:43:43.050Z,6.37
2022-12-13T03:46:10.566Z,6.70
2022-12-13T03:48:37.794Z,6.73
2022-12-13T03:51:05.237Z,6.47
2022-12-13T03:53:34.591Z,7.73
2022-12-13T03:56:05.159Z,7.00
2022-12-13T03:58:36.244Z,7.23
2022-12-13T04:01:12.525Z,8.20
2022-12-13T04:03:43.020Z,7.00
2022-12-13T04:06:10.447Z,7.37
2022-12-13T04:08:39.008Z,6.93
2022-12-13T04:11:25.168Z,7.43
2022-12-13T04:13:53.933Z,8.23
2022-12-13T04:16:21.960Z,7.00
2022-12-13T04:18:48.993Z,7.87
2022-12-13T04:21:16.103Z,8.00
2022-12-13T04:23:42.961Z,8.17
2022-12-13T04:26:10.388Z,8.00
2022-12-13T04:28:37.299Z,7.10
2022-12-13T04:31:04.462Z,7.20
2022-12-13T04:33:32.706Z,8.13
2022-12-13T04:36:00.328Z,6.90
2022-12-13T04:38:27.513Z,7.57
2022-12-13T04:40:54.438Z,7.30
2022-12-13T04:43:21.308Z,7.10
2022-12-13T04:45:48.263Z,7.40
2022-12-13T04:48:30.213Z,6.90
2022-12-13T04:51:01.319Z,6.13
2022-12-13T04:53:29.977Z,7.73
2022-12-13T04:55:56.954Z,7.40
2022-12-13T04:58:23.838Z,6.80
2022-12-13T05:00:50.816Z,6.07
2022-12-13T05:03:17.738Z,5.97
2022-12-13T05:05:44.628Z,7.30
2022-12-13T05:08:11.611Z,6.50
2022-12-13T05:10:38.545Z,7.07
2022-12-13T05:13:06.655Z,6.37
2022-12-13T05:15:34.283Z,7.37
2022-12-13T05:18:09.580Z,6.50
2022-12-13T05:20:39.513Z,6.00
2022-12-13T05:23:06.474Z,7.33
2022-12-13T05:25:34.711Z,6.83
2022-12-13T05:28:08.914Z,7.00
2022-12-13T05:30:48.465Z,7.07
2022-12-13T05:33:15.341Z,6.63
2022-12-13T05:35:42.499Z,6.73
2022-12-13T05:38:09.546Z,8.17
2022-12-13T05:40:36.439Z,7.43
2022-12-13T05:43:03.324Z,6.30
2022-12-13T05:45:48.535Z,7.27
2022-12-13T05:48:15.419Z,8.17
2022-12-13T05:50:52.488Z,7.43
2022-12-13T05:53:37.954Z,7.73
2022-12-13T05:56:05.088Z,7.13
2022-12-13T05:58:35.453Z,8.87
2022-12-13T06:01:08.461Z,7.83
2022-12-13T06:03:36.029Z,8.63
2022-12-13T06:06:04.051Z,8.00
2022-12-13T06:08:31.312Z,8.00
2022-12-13T06:11:11.680Z,8.33
2022-12-13T06:13:44.157Z,9.30
2022-12-13T06:16:23.346Z,8.37
2022-12-13T06:18:59.348Z,8.90
2022-12-13T06:21:43.456Z,8.00
2022-12-13T06:24:14.667Z,7.63
2022-12-13T06:26:41.797Z,7.87
2022-12-13T06:29:08.660Z,7.70
2022-12-13T06:31:35.557Z,8.10
2022-12-13T06:34:14.417Z,8.13
2022-12-13T06:36:43.018Z,6.90
2022-12-13T06:39:09.935Z,8.03
2022-12-13T06:41:37.064Z,7.27
2022-12-13T06:44:04.726Z,7.23
2022-12-13T06:46:31.668Z,7.03
2022-12-13T06:48:58.637Z,7.30
2022-12-13T06:51:33.303Z,8.70
2022-12-13T06:54:04.452Z,7.43
2022-12-13T06:56:31.744Z,7.57
2022-12-13T06:59:01.823Z,8.50
2022-12-13T07:01:36.776Z,7.50
2022-12-13T07:04:28.878Z,8.30
2022-12-13T07:06:52.974Z,8.23
2022-12-13T07:09:19.817Z,6.57
2022-12-13T07:11:51.945Z,7.60
2022-12-13T07:14:19.834Z,7.97
2022-12-13T07:16:46.684Z,7.90
2022-12-13T07:19:23.387Z,7.70
2022-12-13T07:21:52.175Z,8.47
2022-12-13T07:24:19.089Z,8.37
2022-12-13T07:26:46.359Z,8.37
2022-12-13T07:29:13.305Z,6.90
2022-12-13T07:31:49.386Z,8.80
2022-12-13T07:34:16.250Z,8.43
2022-12-13T07:36:43.150Z,8.20
2022-12-13T07:39:10.807Z,8.00
2022-12-13T07:41:37.689Z,7.60
2022-12-13T07:44:05.225Z,8.33
2022-12-13T07:46:33.889Z,8.30
2022-12-13T07:49:05.322Z,8.10
2022-12-13T07:51:35.104Z,8.63
2022-12-13T07:54:07.170Z,7.83
2022-12-13T07:56:35.641Z,7.93
2022-12-13T07:59:02.620Z,7.60
2022-12-13T08:01:35.234Z,7.70
2022-12-13T08:04:03.667Z,8.43
2022-12-13T08:06:34.899Z,7.80
2022-12-13T08:09:02.018Z,8.67
2022-12-13T08:11:28.922Z,9.20
2022-12-13T08:13:55.752Z,8.27
2022-12-13T08:16:28.135Z,8.07
2022-12-13T08:19:02.486Z,7.70
2022-12-13T08:21:57.367Z,7.80
2022-12-13T08:24:30.307Z,7.67
2022-12-13T08:27:02.944Z,7.63
2022-12-13T08:29:34.986Z,8.90
2022-12-13T08:32:10.430Z,7.80
2022-12-13T08:34:37.860Z,8.27
2022-12-13T08:37:05.033Z,8.93
2022-12-13T08:39:37.576Z,8.63
2022-12-13T08:42:19.290Z,8.83
2022-12-13T08:44:48.795Z,7.53
2022-12-13T08:47:23.664Z,8.73
2022-12-13T08:50:03.017Z,8.37
2022-12-13T08:52:40.244Z,8.87
2022-12-13T08:55:14.278Z,8.90
2022-12-13T08:57:42.832Z,9.93
2022-12-13T09:00:14.321Z,9.07
2022-12-13T09:02:41.278Z,8.90
2022-12-13T09:05:10.127Z,8.70
2022-12-13T09:07:39.459Z,8.93
2022-12-13T09:10:25.697Z,9.47
2022-12-13T09:13:01.031Z,8.97
2022-12-13T09:15:33.896Z,9.80
2022-12-13T09:18:04.264Z,10.90
2022-12-13T09:20:41.067Z,11.57
2022-12-13T09:23:14.230Z,12.23
2022-12-13T09:26:05.160Z,10.47
2022-12-13T09:28:35.506Z,9.87
2022-12-13T09:31:07.502Z,10.80
2022-12-13T09:33:40.805Z,10.87
2022-12-13T09:36:11.794Z,11.60
2022-12-13T09:38:39.085Z,10.80
2022-12-13T09:41:29.218Z,10.90
2022-12-13T09:44:06.164Z,11.03
2022-12-13T09:46:54.561Z,13.17
2022-12-13T09:49:39.400Z,10.33
2022-12-13T09:52:21.304Z,12.30
2022-12-13T09:54:55.884Z,10.40
2022-12-13T09:57:33.931Z,10.43
2022-12-13T10:00:13.679Z,11.63
2022-12-13T10:02:49.008Z,10.70
2022-12-13T10:05:35.750Z,10.80
2022-12-13T10:08:15.132Z,11.77
2022-12-13T10:10:43.651Z,11.30
2022-12-13T10:13:39.505Z,11.70
2022-12-13T10:16:37.133Z,12.00
2022-12-13T10:19:29.567Z,11.60
2022-12-13T10:22:01.490Z,11.80
2022-12-13T10:24:49.643Z,11.20
2022-12-13T10:27:42.422Z,11.10
2022-12-13T10:30:16.923Z,12.40
2022-12-13T10:32:57.109Z,13.03
2022-12-13T10:35:37.204Z,15.07
2022-12-13T10:38:31.464Z,16.13
2022-12-13T10:41:00.925Z,12.57
2022-12-13T10:43:32.820Z,12.80
2022-12-13T10:46:03.983Z,13.10
2022-12-13T10:48:38.873Z,13.40
2022-12-13T10:51:20.056Z,15.23
2022-12-13T10:53:54.681Z,15.30
2022-12-13T10:56:33.386Z,15.57
2022-12-13T10:59:18.372Z,16.10
2022-12-13T11:01:45.407Z,16.80
2022-12-13T11:04:33.053Z,17.13
2022-12-13T11:07:22.532Z,17.00
2022-12-13T11:09:52.307Z,17.60
2022-12-13T11:12:26.412Z,16.80
2022-12-13T11:15:03.592Z,17.03
2022-12-13T11:17:46.601Z,17.40
2022-12-13T11:20:23.615Z,16.30
2022-12-13T11:23:04.678Z,17.83
2022-12-13T11:25:40.148Z,18.67
2022-12-13T11:28:31.956Z,17.30
2022-12-13T11:31:20.830Z,17.70
2022-12-13T11:34:02.646Z,18.63
2022-12-13T11:36:55.084Z,17.23
2022-12-13T11:39:32.085Z,18.67
2022-12-13T11:42:21.409Z,18.30
2022-12-13T11:44:58.759Z,19.50
2022-12-13T11:47:39.934Z,17.30
2022-12-13T11:50:34.293Z,19.43
2022-12-13T11:53:29.205Z,20.60
2022-12-13T11:56:28.564Z,20.20
2022-12-13T11:59:40.294Z,19.70
2022-12-13T12:02:36.007Z,20.33
2022-12-13T12:05:25.463Z,20.80
2022-12-13T12:08:31.758Z,18.70
2022-12-13T12:10:50.458Z,19.40
2022-12-13T12:13:24.582Z,20.13
2022-12-13T12:16:23.430Z,19.23
2022-12-13T12:18:51.938Z,19.60
2022-12-13T12:22:12.246Z,19.70
2022-12-13T12:24:57.502Z,19.20
2022-12-13T12:27:55.139Z,19.80
2022-12-13T12:31:13.268Z,19.97
2022-12-13T12:33:55.530Z,19.53
2022-12-13T12:37:06.275Z,20.50
2022-12-13T12:39:41.572Z,19.70
2022-12-13T12:42:44.577Z,20.30
2022-12-13T12:45:57.947Z,18.87
2022-12-13T12:49:27.768Z,18.37
2022-12-13T12:52:46.744Z,18.70
2022-12-13T12:55:58.908Z,18.03
2022-12-13T12:59:06.599Z,18.47
2022-12-13T13:01:59.271Z,16.90
2022-12-13T13:04:42.266Z,17.43
2022-12-13T13:07:29.649Z,16.83
2022-12-13T13:09:58.168Z,17.30
2022-12-13T13:12:44.180Z,14.60
2022-12-13T13:15:32.781Z,17.30
2022-12-13T13:18:00.738Z,16.10
2022-12-13T13:20:29.121Z,15.47
2022-12-13T13:23:31.925Z,14.93
2022-12-13T13:26:15.826Z,16.03
2022-12-13T13:28:42.369Z,14.97
2022-12-13T13:31:10.274Z,14.33
2022-12-13T13:33:50.933Z,13.50
2022-12-13T13:36:46.539Z,15.07
2022-12-13T13:40:01.440Z,14.30
2022-12-13T13:42:32.770Z,14.50
2022-12-13T13:45:18.022Z,12.30
2022-12-13T13:48:15.917Z,13.90
2022-12-13T13:51:09.579Z,13.13
2022-12-13T13:54:06.868Z,14.37
2022-12-13T13:56:36.109Z,14.13
2022-12-13T13:59:54.522Z,14.17
2022-12-13T14:03:00.507Z,13.50
2022-12-13T14:06:11.475Z,13.47
2022-12-13T14:09:41.782Z,14.50
2022-12-13T14:13:02.566Z,14.60
2022-12-13T14:16:21.109Z,14.70
2022-12-13T14:19:18.967Z,14.90
2022-12-13T14:22:04.159Z,15.07
2022-12-13T14:25:15.519Z,16.20
2022-12-13T14:28:14.433Z,15.47
2022-12-13T14:30:48.182Z,13.33
2022-12-13T14:33:25.909Z,13.60
2022-12-13T14:35:59.949Z,14.50
2022-12-13T14:38:30.925Z,13.90
2022-12-13T14:41:01.830Z,15.37
2022-12-13T14:43:34.572Z,14.80
2022-12-13T14:46:05.197Z,13.30
2022-12-13T14:48:49.122Z,14.10
2022-12-13T14:51:38.232Z,14.30
2022-12-13T14:54:07.951Z,13.40
2022-12-13T14:56:35.598Z,14.27
2022-12-13T14:59:12.255Z,12.73
2022-12-13T15:01:40.693Z,13.17
2022-12-13T15:04:30.867Z,13.40
2022-12-13T15:07:11.360Z,14.00
2022-12-13T15:09:42.014Z,13.10
2022-12-13T15:12:25.344Z,13.60
2022-12-13T15:15:00.427Z,13.13
2022-12-13T15:17:39.528Z,14.23
2022-12-13T15:20:28.370Z,12.60
2022-12-13T15:23:30.334Z,14.17
2022-12-13T15:26:28.721Z,15.27
2022-12-13T15:29:00.681Z,13.30
2022-12-13T15:31:28.544Z,13.33
2022-12-13T15:34:00.991Z,14.23
2022-12-13T15:36:29.603Z,14.20
2022-12-13T15:38:56.336Z,13.30
2022-12-13T15:41:28.104Z,12.80
2022-12-13T15:44:14.992Z,14.33
2022-12-13T15:46:46.711Z,13.60
2022-12-13T15:49:32.836Z,12.97
2022-12-13T15:52:14.984Z,13.60
2022-12-13T15:54:43.075Z,13.63
2022-12-13T15:57:24.530Z,12.37
2022-12-13T16:00:30.222Z,12.57
2022-12-13T16:03:08.810Z,12.80
2022-12-13T16:05:42.511Z,13.37
2022-12-13T16:08:28.377Z,12.10
2022-12-13T16:10:55.736Z,13.00
2022-12-13T16:13:33.272Z,12.77
2022-12-13T16:16:39.099Z,13.63
2022-12-13T16:19:18.122Z,14.07
2022-12-13T16:21:45.021Z,15.43
2022-12-13T16:24:12.272Z,13.30
2022-12-13T16:26:46.106Z,14.17
2022-12-13T16:29:16.965Z,13.47
2022-12-13T16:31:44.215Z,13.23
2022-12-13T16:34:11.593Z,15.30
2022-12-13T16:36:38.516Z,14.60
2022-12-13T16:39:07.732Z,14.53
2022-12-13T16:41:41.691Z,14.53
2022-12-13T16:44:12.679Z,16.07
2022-12-13T16:47:12.562Z,14.77
2022-12-13T16:49:30.778Z,14.63
2022-12-13T16:51:57.778Z,14.77
2022-12-13T16:54:25.931Z,17.13
2022-12-13T16:56:54.072Z,16.40
2022-12-13T16:59:24.745Z,17.40
2022-12-13T17:01:52.537Z,15.30
2022-12-13T17:04:24.673Z,15.17
2022-12-13T17:06:54.969Z,17.30
2022-12-13T17:09:23.213Z,16.20
2022-12-13T17:11:50.213Z,16.30
2022-12-13T17:14:17.110Z,16.53
2022-12-13T17:16:44.092Z,16.90
2022-12-13T17:19:14.518Z,15.30
2022-12-13T17:21:41.525Z,16.83
2022-12-13T17:24:08.870Z,14.90
2022-12-13T17:26:35.753Z,18.70
2022-12-13T17:29:02.952Z,16.00
2022-12-13T17:31:35.168Z,15.60
2022-12-13T17:34:03.040Z,14.33
2022-12-13T17:36:31.464Z,16.70
2022-12-13T17:38:58.779Z,15.60
2022-12-13T17:41:25.675Z,19.10
2022-12-13T17:43:52.626Z,19.13
2022-12-13T17:46:19.648Z,17.40
2022-12-13T17:48:46.827Z,19.03
2022-12-13T17:51:14.722Z,16.17
2022-12-13T17:53:43.811Z,16.07
2022-12-13T17:56:15.081Z,16.90
2022-12-13T17:58:43.511Z,22.50
2022-12-13T18:01:23.050Z,20.60
2022-12-13T18:03:53.383Z,19.60
2022-12-13T18:06:20.314Z,21.20
2022-12-13T18:08:47.616Z,19.33
2022-12-13T18:11:32.777Z,16.83
2022-12-13T18:14:01.930Z,15.53
2022-12-13T18:16:36.312Z,17.67
2022-12-13T18:19:11.736Z,17.47
2022-12-13T18:21:39.215Z,16.90
2022-12-13T18:24:07.419Z,16.17
2022-12-13T18:26:34.623Z,14.80
2022-12-13T18:29:02.092Z,15.47
2022-12-13T18:31:29.134Z,15.33
2022-12-13T18:33:56.171Z,15.90
2022-12-13T18:36:25.107Z,15.60
2022-12-13T18:38:52.235Z,16.60
2022-12-13T18:41:22.972Z,14.53
2022-12-13T18:44:02.555Z,14.37
2022-12-13T18:46:32.480Z,16.00
2022-12-13T18:48:59.784Z,16.50
2022-12-13T18:51:27.763Z,17.87
2022-12-13T18:53:55.911Z,17.33
2022-12-13T18:56:23.691Z,16.00
2022-12-13T18:58:51.979Z,16.03
2022-12-13T19:01:19.848Z,16.80
2022-12-13T19:03:48.686Z,17.63
2022-12-13T19:06:25.768Z,17.50
2022-12-13T19:08:56.301Z,16.47
2022-12-13T19:11:26.176Z,19.20
2022-12-13T19:13:53.191Z,37.03
2022-12-13T19:16:22.474Z,27.27
2022-12-13T19:18:49.688Z,18.00
2022-12-13T19:21:19.780Z,16.33
2022-12-13T19:23:53.183Z,15.80
2022-12-13T19:26:24.017Z,15.73
2022-12-13T19:28:51.073Z,15.07
2022-12-13T19:31:18.021Z,15.30
2022-12-13T19:33:45.050Z,17.13
2022-12-13T19:36:12.584Z,18.10
2022-12-13T19:38:40.409Z,16.60
2022-12-13T19:41:09.654Z,17.43
2022-12-13T19:43:36.883Z,15.77
2022-12-13T19:46:04.154Z,15.93
2022-12-13T19:48:31.395Z,13.93
2022-12-13T19:51:00.190Z,15.00
2022-12-13T19:53:28.716Z,12.80
2022-12-13T19:55:56.030Z,14.40
2022-12-13T19:58:23.879Z,14.63
2022-12-13T20:00:51.048Z,16.80
2022-12-13T20:03:18.101Z,15.70
2022-12-13T20:05:45.856Z,15.60
2022-12-13T20:08:12.896Z,15.37
2022-12-13T20:10:39.791Z,15.60
2022-12-13T20:13:06.812Z,17.33
2022-12-13T20:15:33.767Z,14.37
2022-12-13T20:18:00.660Z,16.47
2022-12-13T20:20:47.028Z,16.00
2022-12-13T20:23:15.347Z,14.30
2022-12-13T20:25:42.288Z,15.80
2022-12-13T20:28:15.961Z,16.00
2022-12-13T20:30:43.206Z,17.20
2022-12-13T20:33:10.079Z,18.53
2022-12-13T20:35:54.222Z,15.40
2022-12-13T20:38:24.846Z,17.37
2022-12-13T20:40:51.733Z,16.93
2022-12-13T20:43:18.606Z,19.67
2022-12-13T20:45:45.509Z,15.60
2022-12-13T20:48:12.371Z,17.90
2022-12-13T20:50:39.236Z,18.37
2022-12-13T20:53:06.321Z,16.27
2022-12-13T20:55:35.128Z,16.50
2022-12-13T20:58:02.010Z,16.30
2022-12-13T21:00:29.580Z,15.80
2022-12-13T21:02:56.527Z,16.20
2022-12-13T21:05:23.392Z,18.40
2022-12-13T21:08:08.904Z,16.60
2022-12-13T21:10:35.775Z,16.43
2022-12-13T21:13:02.664Z,17.80
2022-12-13T21:15:29.544Z,16.97
2022-12-13T21:17:56.440Z,16.80
2022-12-13T21:20:23.451Z,16.37
2022-12-13T21:22:50.901Z,17.67
2022-12-13T21:25:17.747Z,16.00
2022-12-13T21:27:44.648Z,16.43
2022-12-13T21:30:15.227Z,16.40
2022-12-13T21:32:42.097Z,17.00
2022-12-13T21:35:09.529Z,17.27
2022-12-13T21:37:39.095Z,17.10
2022-12-13T21:40:06.886Z,19.27
2022-12-13T21:42:33.757Z,17.60
2022-12-13T21:45:02.443Z,17.60
2022-12-13T21:47:29.524Z,18.27
2022-12-13T21:49:56.392Z,17.47
2022-12-13T21:52:23.279Z,17.37
2022-12-13T21:55:03.381Z,18.00
2022-12-13T21:57:56.835Z,18.80
2022-12-13T22:00:23.698Z,16.20
2022-12-13T22:02:50.566Z,16.63
2022-12-13T22:05:17.492Z,16.53
2022-12-13T22:07:44.488Z,17.87
2022-12-13T22:10:15.044Z,17.00
2022-12-13T22:12:41.970Z,17.87
2022-12-13T22:15:14.956Z,17.23
2022-12-13T22:17:43.061Z,16.00
2022-12-13T22:20:13.618Z,18.63
2022-12-13T22:22:42.363Z,19.43
2022-12-13T22:25:09.930Z,16.17
2022-12-13T22:27:36.835Z,16.57
2022-12-13T22:30:04.771Z,18.63
2022-12-13T22:32:32.716Z,17.97
2022-12-13T22:35:00.070Z,17.30
2022-12-13T22:37:27.306Z,17.87
2022-12-13T22:39:54.343Z,17.37
2022-12-13T22:42:21.286Z,16.70
2022-12-13T22:44:48.227Z,18.03
2022-12-13T22:47:15.175Z,16.47
2022-12-13T22:49:42.044Z,18.17
2022-12-13T22:52:09.002Z,17.40
2022-12-13T22:54:35.933Z,16.03
2022-12-13T22:57:02.933Z,15.40
2022-12-13T22:59:29.893Z,16.53
2022-12-13T23:02:02.034Z,15.73
2022-12-13T23:04:31.622Z,15.53
2022-12-13T23:06:58.547Z,14.77
2022-12-13T23:09:25.405Z,15.53
2022-12-13T23:12:11.195Z,14.60
2022-12-13T23:14:38.075Z,14.17
2022-12-13T23:17:05.676Z,15.63
2022-12-13T23:19:50.215Z,14.83
2022-12-13T23:22:22.997Z,13.67
2022-12-13T23:24:51.062Z,13.33
2022-12-13T23:27:20.327Z,13.07
2022-12-13T23:29:47.201Z,13.53
2022-12-13T23:32:14.438Z,13.20
2022-12-13T23:34:41.584Z,13.00
2022-12-13T23:37:08.482Z,13.17
2022-12-13T23:39:35.367Z,12.80
2022-12-13T23:42:02.257Z,13.97
2022-12-13T23:44:29.121Z,11.57
2022-12-13T23:46:56.082Z,12.03
2022-12-13T23:49:22.947Z,11.63
2022-12-13T23:51:49.835Z,12.73
2022-12-13T23:54:19.379Z,12.60
2022-12-13T23:56:47.196Z,11.97
2022-12-13T23:59:14.084Z,11.23
